createdAt,value
2019-01-16T00:00:42.325Z,100557.00
2019-01-16T00:03:29.767Z,100552.00
2019-01-16T00:06:17.286Z,100559.00
2019-01-16T00:09:13.613Z,100559.00
2019-01-16T00:12:01.157Z,100549.00
2019-01-16T00:15:00.565Z,100549.00
2019-01-16T00:17:37.146Z,100549.00
2019-01-16T00:20:35.754Z,100535.00
2019-01-16T00:23:22.406Z,100550.00
2019-01-16T00:26:09.911Z,100547.00
2019-01-16T00:28:55.847Z,100535.00
2019-01-16T00:31:33.642Z,100542.00
2019-01-16T00:34:28.843Z,100542.00
2019-01-16T00:37:14.693Z,100544.00
2019-01-16T00:40:17.268Z,100536.00
2019-01-16T00:43:01.882Z,100534.00
2019-01-16T00:45:47.955Z,100533.00
2019-01-16T00:48:29.347Z,100530.00
2019-01-16T00:51:15.272Z,100537.00
2019-01-16T00:54:11.409Z,100530.00
2019-01-16T00:57:04.868Z,100527.00
2019-01-16T01:00:07.533Z,100536.00
2019-01-16T01:02:47.025Z,100527.00
2019-01-16T01:05:24.537Z,100533.00
2019-01-16T01:08:15.077Z,100531.00
2019-01-16T01:11:00.105Z,100524.00
2019-01-16T01:13:47.647Z,100522.00
2019-01-16T01:16:40.855Z,100522.00
2019-01-16T01:19:28.317Z,100523.00
2019-01-16T01:22:18.816Z,100509.00
2019-01-16T01:25:04.688Z,100509.00
2019-01-16T01:28:06.825Z,100507.00
2019-01-16T01:30:52.530Z,100507.00
2019-01-16T01:33:40.020Z,100507.00
2019-01-16T01:36:33.397Z,100507.00
2019-01-16T01:39:19.390Z,100510.00
2019-01-16T01:42:05.487Z,100509.00
2019-01-16T01:45:01.546Z,100514.00
2019-01-16T01:48:03.902Z,100519.00
2019-01-16T01:50:51.410Z,100509.00
2019-01-16T01:53:32.669Z,100495.00
2019-01-16T01:56:20.176Z,100502.00
2019-01-16T01:59:06.431Z,100502.00
2019-01-16T02:02:06.074Z,100502.00
2019-01-16T02:04:51.998Z,100496.00
2019-01-16T02:07:38.156Z,100487.00
2019-01-16T02:10:41.812Z,100493.00
2019-01-16T02:13:25.745Z,100487.00
2019-01-16T02:16:19.100Z,100489.00
2019-01-16T02:19:04.979Z,100489.00
2019-01-16T02:21:46.325Z,100482.00
2019-01-16T02:24:41.105Z,100476.00
2019-01-16T02:27:19.773Z,100479.00
2019-01-16T02:30:00.492Z,100480.00
2019-01-16T02:32:38.262Z,100488.00
2019-01-16T02:35:24.361Z,100483.00
2019-01-16T02:38:05.504Z,100470.00
2019-01-16T02:40:55.769Z,100476.00
2019-01-16T02:43:52.060Z,100472.00
2019-01-16T02:46:40.010Z,100471.00
2019-01-16T02:49:39.631Z,100443.00
2019-01-16T02:52:20.014Z,100468.00
2019-01-16T02:55:05.946Z,100458.00
2019-01-16T02:57:56.451Z,100448.00
2019-01-16T03:00:40.905Z,100450.00
2019-01-16T03:03:18.035Z,100452.00
2019-01-16T03:06:05.513Z,100453.00
2019-01-16T03:08:51.778Z,100443.00
2019-01-16T03:11:47.484Z,100435.00
2019-01-16T03:14:33.116Z,100436.00
2019-01-16T03:17:09.836Z,100427.00
2019-01-16T03:19:57.716Z,100434.00
2019-01-16T03:22:43.463Z,100425.00
2019-01-16T03:25:29.531Z,100428.00
2019-01-16T03:28:07.027Z,100421.00
2019-01-16T03:30:57.504Z,100423.00
2019-01-16T03:33:35.658Z,100422.00
2019-01-16T03:36:29.478Z,100420.00
2019-01-16T03:39:28.627Z,100420.00
2019-01-16T03:42:21.978Z,100420.00
2019-01-16T03:44:55.708Z,100418.00
2019-01-16T03:47:41.400Z,100402.00
2019-01-16T03:50:26.342Z,100398.00
2019-01-16T03:53:12.332Z,100395.00
2019-01-16T03:56:17.978Z,100403.00
2019-01-16T03:59:11.588Z,100398.00
2019-01-16T04:01:54.691Z,100400.00
2019-01-16T04:04:48.667Z,100389.00
2019-01-16T04:07:36.125Z,100388.00
2019-01-16T04:10:27.181Z,100385.00
2019-01-16T04:13:14.788Z,100376.00
2019-01-16T04:16:02.432Z,100378.00
2019-01-16T04:18:56.425Z,100377.00
2019-01-16T04:21:39.251Z,100369.00
2019-01-16T04:24:14.064Z,100367.00
2019-01-16T04:27:04.389Z,100374.00
2019-01-16T04:29:50.588Z,100363.00
2019-01-16T04:32:38.142Z,100372.00
2019-01-16T04:35:43.907Z,100369.00
2019-01-16T04:38:24.772Z,100359.00
2019-01-16T04:41:22.929Z,100354.00
2019-01-16T04:44:25.469Z,100355.00
2019-01-16T04:47:12.944Z,100349.00
2019-01-16T04:49:51.932Z,100340.00
2019-01-16T04:52:45.597Z,100346.00
2019-01-16T04:55:32.837Z,100340.00
2019-01-16T04:58:20.327Z,100339.00
2019-01-16T05:01:05.484Z,100337.00
2019-01-16T05:03:56.195Z,100342.00
2019-01-16T05:06:40.099Z,100336.00
2019-01-16T05:09:25.936Z,100337.00
2019-01-16T05:12:18.918Z,100337.00
2019-01-16T05:15:09.051Z,100345.00
2019-01-16T05:17:59.363Z,100350.00
2019-01-16T05:20:49.295Z,100341.00
2019-01-16T05:23:45.523Z,100340.00
2019-01-16T05:26:27.914Z,100332.00
2019-01-16T05:29:09.818Z,100335.00
2019-01-16T05:31:50.323Z,100337.00
2019-01-16T05:34:37.782Z,100332.00
2019-01-16T05:37:28.230Z,100342.00
2019-01-16T05:40:06.422Z,100332.00
2019-01-16T05:42:59.664Z,100333.00
2019-01-16T05:45:42.099Z,100335.00
2019-01-16T05:48:28.155Z,100334.00
2019-01-16T05:51:05.676Z,100331.00
2019-01-16T05:53:51.350Z,100323.00
2019-01-16T05:56:33.358Z,100314.00
2019-01-16T05:59:36.095Z,100314.00
2019-01-16T06:02:29.179Z,100317.00
2019-01-16T06:05:25.421Z,100312.00
2019-01-16T06:08:04.700Z,100300.00
2019-01-16T06:10:48.941Z,100303.00
2019-01-16T06:13:34.812Z,100296.00
2019-01-16T06:16:25.511Z,100295.00
2019-01-16T06:19:15.879Z,100288.00
2019-01-16T06:22:03.411Z,100298.00
2019-01-16T06:24:48.970Z,100300.00
2019-01-16T06:27:32.520Z,100300.00
2019-01-16T06:30:08.020Z,100294.00
2019-01-16T06:32:49.832Z,100289.00
2019-01-16T06:35:35.852Z,100301.00
2019-01-16T06:38:26.448Z,100302.00
2019-01-16T06:41:19.757Z,100306.00
2019-01-16T06:44:22.012Z,100308.00
2019-01-16T06:47:08.283Z,100284.00
2019-01-16T06:49:42.286Z,100277.00
2019-01-16T06:52:24.130Z,100285.00
2019-01-16T06:55:20.460Z,100277.00
2019-01-16T06:57:58.322Z,100271.00
2019-01-16T07:00:42.047Z,100276.00
2019-01-16T07:03:32.199Z,100278.00
2019-01-16T07:06:35.072Z,100273.00
2019-01-16T07:09:28.546Z,100273.00
2019-01-16T07:12:16.028Z,100284.00
2019-01-16T07:15:07.199Z,100275.00
2019-01-16T07:17:50.454Z,100271.00
2019-01-16T07:20:36.524Z,100278.00
2019-01-16T07:23:29.839Z,100276.00
2019-01-16T07:26:15.658Z,100286.00
2019-01-16T07:29:03.187Z,100286.00
2019-01-16T07:32:02.694Z,100279.00
2019-01-16T07:34:48.759Z,100278.00
2019-01-16T07:37:34.983Z,100266.00
2019-01-16T07:40:23.565Z,100265.00
2019-01-16T07:43:07.571Z,100262.00
2019-01-16T07:45:55.384Z,100265.00
2019-01-16T07:48:43.243Z,100266.00
2019-01-16T07:51:40.807Z,100271.00
2019-01-16T07:54:25.443Z,100263.00
2019-01-16T07:57:30.926Z,100261.00
2019-01-16T08:00:13.376Z,100258.00
2019-01-16T08:02:51.753Z,100270.00
2019-01-16T08:05:37.889Z,100267.00
2019-01-16T08:08:25.576Z,100269.00
2019-01-16T08:11:19.936Z,100281.00
2019-01-16T08:14:19.074Z,100273.00
2019-01-16T08:17:05.068Z,100280.00
2019-01-16T08:19:55.481Z,100273.00
2019-01-16T08:22:34.759Z,100281.00
2019-01-16T08:25:26.679Z,100277.00
2019-01-16T08:28:26.302Z,100273.00
2019-01-16T08:31:01.876Z,100270.00
2019-01-16T08:34:04.603Z,100271.00
2019-01-16T08:36:58.477Z,100277.00
2019-01-16T08:40:03.891Z,100284.00
2019-01-16T08:43:00.609Z,100276.00
2019-01-16T08:45:59.811Z,100280.00
2019-01-16T08:48:47.380Z,100273.00
2019-01-16T08:51:33.729Z,100284.00
2019-01-16T08:54:30.311Z,100270.00
2019-01-16T08:57:13.904Z,100273.00
2019-01-16T08:59:59.550Z,100273.00
2019-01-16T09:02:56.319Z,100263.00
2019-01-16T09:05:43.267Z,100249.00
2019-01-16T09:08:24.724Z,100258.00
2019-01-16T09:11:10.900Z,100259.00
2019-01-16T09:13:49.977Z,100249.00
2019-01-16T09:16:37.091Z,100253.00
2019-01-16T09:19:15.495Z,100255.00
2019-01-16T09:22:15.226Z,100244.00
2019-01-16T09:25:14.653Z,100239.00
2019-01-16T09:28:00.742Z,100250.00
2019-01-16T09:30:39.345Z,100248.00
2019-01-16T09:33:29.713Z,100239.00
2019-01-16T09:36:08.841Z,100228.00
2019-01-16T09:38:54.739Z,100232.00
2019-01-16T09:41:40.817Z,100219.00
2019-01-16T09:44:18.928Z,100216.00
2019-01-16T09:47:04.629Z,100229.00
2019-01-16T09:49:55.190Z,100217.00
2019-01-16T09:52:44.771Z,100210.00
2019-01-16T09:55:29.850Z,100215.00
2019-01-16T09:58:23.194Z,100216.00
2019-01-16T10:01:13.988Z,100220.00
2019-01-16T10:03:54.878Z,100222.00
2019-01-16T10:06:44.855Z,100203.00
2019-01-16T10:09:31.156Z,100200.00
2019-01-16T10:12:12.541Z,100200.00
2019-01-16T10:15:00.268Z,100211.00
2019-01-16T10:17:46.499Z,100203.00
2019-01-16T10:20:24.905Z,100207.00
2019-01-16T10:23:15.382Z,100192.00
2019-01-16T10:26:02.983Z,100196.00
2019-01-16T10:28:50.602Z,100188.00
2019-01-16T10:31:38.121Z,100174.00
2019-01-16T10:34:24.391Z,100167.00
2019-01-16T10:37:10.423Z,100165.00
2019-01-16T10:39:56.099Z,100162.00
2019-01-16T10:42:43.810Z,100150.00
2019-01-16T10:45:28.652Z,100147.00
2019-01-16T10:48:17.178Z,100150.00
2019-01-16T10:50:53.217Z,100131.00
2019-01-16T10:53:52.288Z,100133.00
2019-01-16T10:56:32.193Z,100123.00
2019-01-16T10:59:22.731Z,100125.00
2019-01-16T11:02:08.996Z,100122.00
2019-01-16T11:04:56.429Z,100129.00
2019-01-16T11:07:42.450Z,100125.00
2019-01-16T11:10:34.067Z,100131.00
2019-01-16T11:13:29.231Z,100124.00
2019-01-16T11:16:21.544Z,100126.00
2019-01-16T11:19:07.461Z,100122.00
2019-01-16T11:21:53.087Z,100114.00
2019-01-16T11:24:58.926Z,100100.00
2019-01-16T11:27:58.303Z,100097.00
2019-01-16T11:30:46.663Z,100092.00
2019-01-16T11:33:27.033Z,100084.00
2019-01-16T11:36:29.786Z,100087.00
2019-01-16T11:39:32.097Z,100068.00
2019-01-16T11:42:19.630Z,100064.00
2019-01-16T11:45:03.356Z,100052.00
2019-01-16T11:50:26.734Z,100034.00
2019-01-16T11:53:12.213Z,100043.00
2019-01-16T11:55:57.791Z,100038.00
2019-01-16T11:58:36.781Z,100020.00
2019-01-16T12:01:16.422Z,100022.00
2019-01-16T12:04:02.586Z,100017.00
2019-01-16T12:06:55.745Z,100016.00
2019-01-16T12:10:01.500Z,100005.00
2019-01-16T12:12:49.233Z,100002.00
2019-01-16T12:15:36.141Z,99994.00
2019-01-16T12:18:32.429Z,100004.00
2019-01-16T12:21:35.280Z,99995.00
2019-01-16T12:24:27.202Z,99994.00
2019-01-16T12:27:13.485Z,99983.00
2019-01-16T12:29:54.916Z,99980.00
2019-01-16T12:32:45.524Z,99966.00
2019-01-16T12:35:26.680Z,99968.00
2019-01-16T12:38:17.162Z,99952.00
2019-01-16T12:41:03.256Z,99964.00
2019-01-16T12:43:50.898Z,99952.00
2019-01-16T12:46:34.188Z,99952.00
2019-01-16T12:49:20.285Z,99948.00
2019-01-16T12:52:08.763Z,99943.00
2019-01-16T12:54:54.854Z,99950.00
2019-01-16T12:57:57.060Z,99945.00
2019-01-16T13:00:43.729Z,99929.00
2019-01-16T13:03:30.086Z,99925.00
2019-01-16T13:06:26.769Z,99926.00
2019-01-16T13:09:11.682Z,99920.00
2019-01-16T13:12:03.598Z,99917.00
2019-01-16T13:15:00.225Z,99918.00
2019-01-16T13:17:56.527Z,99912.00
2019-01-16T13:20:42.114Z,99911.00
2019-01-16T13:23:32.865Z,99900.00
2019-01-16T13:26:18.846Z,99912.00
2019-01-16T13:29:05.161Z,99907.00
2019-01-16T13:31:55.739Z,99897.00
2019-01-16T13:34:43.348Z,99894.00
2019-01-16T13:37:28.216Z,99899.00
2019-01-16T13:40:27.695Z,99890.00
2019-01-16T13:43:04.803Z,99901.00
2019-01-16T13:46:01.202Z,99887.00
2019-01-16T13:48:52.756Z,99879.00
2019-01-16T13:51:29.933Z,99881.00
2019-01-16T13:54:21.002Z,99873.00
2019-01-16T13:57:03.449Z,99875.00
2019-01-16T13:59:53.965Z,99876.00
2019-01-16T14:02:47.557Z,99862.00
2019-01-16T14:05:24.620Z,99864.00
2019-01-16T14:08:01.158Z,99843.00
2019-01-16T14:10:46.942Z,99848.00
2019-01-16T14:13:40.556Z,99838.00
2019-01-16T14:16:37.116Z,99841.00
2019-01-16T14:19:39.571Z,99831.00
2019-01-16T14:22:30.194Z,99828.00
2019-01-16T14:25:15.410Z,99832.00
2019-01-16T14:28:02.016Z,99818.00
2019-01-16T14:30:53.482Z,99820.00
2019-01-16T14:33:53.097Z,99808.00
2019-01-16T14:36:43.783Z,99811.00
2019-01-16T14:39:23.389Z,99802.00
2019-01-16T14:42:22.810Z,99812.00
2019-01-16T14:45:13.583Z,99810.00
2019-01-16T14:48:04.231Z,99813.00
2019-01-16T14:50:52.728Z,99798.00
2019-01-16T14:53:52.435Z,99802.00
2019-01-16T14:56:46.311Z,99793.00
2019-01-16T14:59:36.956Z,99788.00
2019-01-16T15:02:42.949Z,99776.00
2019-01-16T15:05:29.676Z,99765.00
2019-01-16T15:08:14.213Z,99776.00
2019-01-16T15:11:10.600Z,99764.00
2019-01-16T15:13:58.284Z,99760.00
2019-01-16T15:17:04.807Z,99743.00
2019-01-16T15:20:01.194Z,99745.00
2019-01-16T15:22:54.557Z,99743.00
2019-01-16T15:25:40.505Z,99736.00
2019-01-16T15:28:26.310Z,99733.00
2019-01-16T15:31:16.990Z,99728.00
2019-01-16T15:33:59.763Z,99723.00
2019-01-16T15:36:41.384Z,99715.00
2019-01-16T15:39:31.323Z,99722.00
2019-01-16T15:42:21.871Z,99716.00
2019-01-16T15:45:10.676Z,99716.00
2019-01-16T15:47:57.457Z,99719.00
2019-01-16T15:50:45.270Z,99715.00
2019-01-16T15:53:39.484Z,99711.00
2019-01-16T15:56:39.857Z,99714.00
2019-01-16T15:59:22.014Z,99715.00
2019-01-16T16:02:03.566Z,99716.00
2019-01-16T16:04:51.179Z,99694.00
2019-01-16T16:07:37.303Z,99704.00
2019-01-16T16:10:45.387Z,99707.00
2019-01-16T16:13:27.221Z,99695.00
2019-01-16T16:16:10.749Z,99710.00
2019-01-16T16:18:57.161Z,99695.00
2019-01-16T16:21:40.319Z,99695.00
2019-01-16T16:24:20.986Z,99670.00
2019-01-16T16:27:06.941Z,99662.00
2019-01-16T16:29:57.475Z,99674.00
2019-01-16T16:32:43.683Z,99669.00
2019-01-16T16:35:43.736Z,99675.00
2019-01-16T16:38:24.938Z,99674.00
2019-01-16T16:41:27.931Z,99666.00
2019-01-16T16:44:05.930Z,99663.00
2019-01-16T16:46:51.965Z,99663.00
2019-01-16T16:49:28.809Z,99666.00
2019-01-16T16:52:12.754Z,99650.00
2019-01-16T16:55:07.678Z,99645.00
2019-01-16T16:57:52.022Z,99648.00
2019-01-16T17:00:48.329Z,99643.00
2019-01-16T17:03:44.779Z,99645.00
2019-01-16T17:06:26.517Z,99636.00
2019-01-16T17:09:09.067Z,99641.00
2019-01-16T17:11:51.570Z,99638.00
2019-01-16T17:14:30.701Z,99640.00
2019-01-16T17:17:25.110Z,99631.00
2019-01-16T17:20:18.798Z,99621.00
2019-01-16T17:22:58.877Z,99636.00
2019-01-16T17:25:45.024Z,99621.00
2019-01-16T17:28:27.671Z,99619.00
2019-01-16T17:31:27.468Z,99622.00
2019-01-16T17:34:16.617Z,99621.00
2019-01-16T17:37:04.313Z,99622.00
2019-01-16T17:39:51.823Z,99622.00
2019-01-16T17:42:30.277Z,99615.00
2019-01-16T17:45:20.869Z,99615.00
2019-01-16T17:48:06.895Z,99608.00
2019-01-16T17:50:52.709Z,99606.00
2019-01-16T17:53:58.229Z,99603.00
2019-01-16T17:56:44.257Z,99598.00
2019-01-16T17:59:37.481Z,99605.00
2019-01-16T18:02:25.113Z,99600.00
2019-01-16T18:05:18.799Z,99588.00
2019-01-16T18:08:02.833Z,99590.00
2019-01-16T18:10:46.216Z,99587.00
2019-01-16T18:13:39.900Z,99575.00
2019-01-16T18:16:32.415Z,99576.00
2019-01-16T18:19:20.422Z,99574.00
2019-01-16T18:21:59.664Z,99565.00
2019-01-16T18:24:47.392Z,99548.00
2019-01-16T18:27:54.136Z,99568.00
2019-01-16T18:30:42.124Z,99560.00
2019-01-16T18:33:30.271Z,99561.00
2019-01-16T18:36:16.730Z,99553.00
2019-01-16T18:39:06.252Z,99540.00
2019-01-16T18:42:12.085Z,99535.00
2019-01-16T18:45:02.738Z,99531.00
2019-01-16T18:48:08.448Z,99535.00
2019-01-16T18:51:01.717Z,99532.00
2019-01-16T18:53:42.556Z,99539.00
2019-01-16T18:56:38.566Z,99535.00
2019-01-16T18:59:29.173Z,99531.00
2019-01-16T19:02:29.018Z,99545.00
2019-01-16T19:05:22.703Z,99528.00
2019-01-16T19:08:10.691Z,99525.00
2019-01-16T19:10:46.262Z,99525.00
2019-01-16T19:13:32.410Z,99525.00
2019-01-16T19:16:17.439Z,99523.00
2019-01-16T19:18:59.011Z,99540.00
2019-01-16T19:21:40.399Z,99537.00
2019-01-16T19:24:26.579Z,99534.00
2019-01-16T19:27:12.600Z,99525.00
2019-01-16T19:30:03.114Z,99517.00
2019-01-16T19:32:49.443Z,99523.00
2019-01-16T19:35:40.037Z,99518.00
2019-01-16T19:38:21.533Z,99510.00
2019-01-16T19:41:12.213Z,99513.00
2019-01-16T19:44:05.745Z,99521.00
2019-01-16T19:46:58.794Z,99506.00
2019-01-16T19:49:48.328Z,99511.00
2019-01-16T19:52:36.572Z,99497.00
2019-01-16T19:55:25.434Z,99499.00
2019-01-16T19:58:11.443Z,99504.00
2019-01-16T20:01:03.859Z,99511.00
2019-01-16T20:03:51.668Z,99503.00
2019-01-16T20:06:32.203Z,99495.00
2019-01-16T20:09:28.995Z,99483.00
2019-01-16T20:12:15.265Z,99475.00
2019-01-16T20:15:21.873Z,99471.00
2019-01-16T20:18:16.798Z,99473.00
2019-01-16T20:21:03.970Z,99475.00
2019-01-16T20:24:02.024Z,99475.00
2019-01-16T20:27:01.857Z,99475.00
2019-01-16T20:29:48.163Z,99468.00
2019-01-16T20:32:50.559Z,99481.00
2019-01-16T20:35:56.588Z,99471.00
2019-01-16T20:38:45.945Z,99474.00
2019-01-16T20:41:31.655Z,99473.00
2019-01-16T20:44:22.162Z,99476.00
2019-01-16T20:46:59.321Z,99466.00
2019-01-16T20:49:50.572Z,99473.00
2019-01-16T20:52:41.215Z,99475.00
2019-01-16T20:55:45.975Z,99471.00
2019-01-16T20:58:42.245Z,99464.00
2019-01-16T21:01:32.519Z,99458.00
2019-01-16T21:04:16.809Z,99452.00
2019-01-16T21:07:01.637Z,99464.00
2019-01-16T21:09:44.137Z,99455.00
2019-01-16T21:12:19.831Z,99453.00
2019-01-16T21:15:13.247Z,99454.00
2019-01-16T21:17:55.144Z,99445.00
2019-01-16T21:20:45.727Z,99449.00
2019-01-16T21:23:33.666Z,99449.00
2019-01-16T21:26:24.305Z,99449.00
2019-01-16T21:29:30.058Z,99457.00
2019-01-16T21:32:06.650Z,99451.00
2019-01-16T21:34:45.833Z,99453.00
2019-01-16T21:37:33.563Z,99451.00
2019-01-16T21:40:36.254Z,99452.00
2019-01-16T21:43:22.597Z,99441.00
2019-01-16T21:46:08.633Z,99428.00
2019-01-16T21:48:54.848Z,99436.00
2019-01-16T21:51:42.553Z,99429.00
2019-01-16T21:54:20.784Z,99430.00
2019-01-16T21:57:08.450Z,99418.00
2019-01-16T21:59:50.303Z,99418.00
2019-01-16T22:02:40.950Z,99424.00
2019-01-16T22:05:20.950Z,99423.00
2019-01-16T22:08:08.548Z,99431.00
2019-01-16T22:10:55.987Z,99425.00
2019-01-16T22:13:44.345Z,99421.00
2019-01-16T22:16:43.969Z,99409.00
2019-01-16T22:19:34.350Z,99413.00
2019-01-16T22:22:24.992Z,99413.00
2019-01-16T22:25:07.952Z,99412.00
2019-01-16T22:28:01.385Z,99407.00
2019-01-16T22:30:38.408Z,99407.00
2019-01-16T22:33:13.603Z,99398.00
2019-01-16T22:36:04.681Z,99401.00
2019-01-16T22:38:57.556Z,99403.00
2019-01-16T22:41:34.517Z,99413.00
2019-01-16T22:44:22.477Z,99399.00
2019-01-16T22:47:04.347Z,99407.00
2019-01-16T22:49:50.039Z,99395.00
2019-01-16T22:52:37.598Z,99399.00
2019-01-16T22:55:23.649Z,99395.00
2019-01-16T22:58:25.831Z,99409.00
2019-01-16T23:01:29.921Z,99393.00
2019-01-16T23:04:20.056Z,99393.00
2019-01-16T23:06:57.644Z,99406.00
2019-01-16T23:09:42.871Z,99392.00
2019-01-16T23:12:48.377Z,99396.00
2019-01-16T23:15:33.336Z,99387.00
2019-01-16T23:18:18.737Z,99373.00
2019-01-16T23:21:17.914Z,99383.00
2019-01-16T23:24:05.677Z,99373.00
2019-01-16T23:26:59.134Z,99375.00
2019-01-16T23:29:50.318Z,99375.00
2019-01-16T23:32:48.069Z,99353.00
2019-01-16T23:35:50.672Z,99364.00
2019-01-16T23:38:56.286Z,99368.00
2019-01-16T23:41:43.372Z,99378.00
2019-01-16T23:44:46.192Z,99379.00
2019-01-16T23:47:32.333Z,99375.00
2019-01-16T23:50:25.698Z,99376.00
2019-01-16T23:53:08.110Z,99378.00
2019-01-16T23:55:54.056Z,99361.00
2019-01-16T23:58:53.757Z,99353.00
